aviador You're here:

CYGW Decoded Metar

KUUJJUARARAPIK in QC, CANADA
Report Time2017-11-18 13:17:00
UTC Time2017-11-18 14:07:13
Flight Rules ifr IFR
Wind120° at 14 Gusting to 21 kt
W.Decomp.*RWY 21: 4.1 kt HW 13.4 kt LCW
W.Rank120° ranks 2
Current wind is above 120° avg. (8.6)
Visibility3621 m
Phenomena:Light Snow
Clouds:Overcast 017 Hf
Expected CloudBase > 800 ft AGL from Temp-Dew spread
Ceiling1,700 ft
Temp-10°C (ISA -25)
Dew Point-12°C (85% RH)
AAT-18.2°C
QNH1008 hPa
Density Alt-2,871 ft
Elevation39 ft
Report Wrong Elevation
Raw Report
SPECI CYGW 181317Z AUTO 12014G21KT 2 1/4SM -SN OVC017 M10/M12 A2976
RMK SLP081=

Extra information for CYGW:More info

Metar Taf Metar & Taf Last 4 Metars F.Rules Stats Wind Profile Meteogram Temp Stats Airport Information Weather charts Add Link Nearby VenuesMetar ALERT Operation Metar Decoded Social comments